createdAt,value
2022-08-29T00:01:59.186Z,3.08
2022-08-29T00:04:30.745Z,3.58
2022-08-29T00:07:03.013Z,3.35
2022-08-29T00:09:32.842Z,4.28
2022-08-29T00:12:05.405Z,3.50
2022-08-29T00:14:37.412Z,3.38
2022-08-29T00:17:09.767Z,3.88
2022-08-29T00:19:41.282Z,2.88
2022-08-29T00:22:11.951Z,3.15
2022-08-29T00:24:42.881Z,3.70
2022-08-29T00:27:12.573Z,3.33
2022-08-29T00:29:46.863Z,3.05
2022-08-29T00:32:18.588Z,3.05
2022-08-29T00:34:51.276Z,3.22
2022-08-29T00:37:21.598Z,2.83
2022-08-29T00:39:51.868Z,3.17
2022-08-29T00:42:23.863Z,3.05
2022-08-29T00:44:57.808Z,2.63
2022-08-29T00:47:34.034Z,2.75
2022-08-29T00:50:03.982Z,2.35
2022-08-29T00:52:40.258Z,2.92
2022-08-29T00:55:12.985Z,2.38
2022-08-29T00:57:48.216Z,2.45
2022-08-29T01:00:20.769Z,2.67
2022-08-29T01:02:52.940Z,2.45
2022-08-29T01:05:26.786Z,2.22
2022-08-29T01:07:58.002Z,2.67
2022-08-29T01:10:52.052Z,2.00
2022-08-29T01:13:24.088Z,2.40
2022-08-29T01:15:57.802Z,2.40
2022-08-29T01:18:30.992Z,2.47
2022-08-29T01:21:09.900Z,2.23
2022-08-29T01:23:46.891Z,1.80
2022-08-29T01:26:19.609Z,2.25
2022-08-29T01:28:53.517Z,2.20
2022-08-29T01:31:37.675Z,2.08
2022-08-29T01:34:20.217Z,1.98
2022-08-29T01:36:53.728Z,2.60
2022-08-29T01:39:27.179Z,1.90
2022-08-29T01:42:00.858Z,2.13
2022-08-29T01:44:31.001Z,2.47
2022-08-29T01:47:03.279Z,1.48
2022-08-29T01:49:38.495Z,2.08
2022-08-29T01:52:13.262Z,1.52
2022-08-29T01:54:45.875Z,1.80
2022-08-29T01:57:20.100Z,2.53
2022-08-29T01:59:52.490Z,2.15
2022-08-29T02:02:25.286Z,2.03
2022-08-29T02:05:00.063Z,2.45
2022-08-29T02:07:31.425Z,2.17
2022-08-29T02:10:02.468Z,2.30
2022-08-29T02:12:37.176Z,2.40
2022-08-29T02:15:09.861Z,1.98
2022-08-29T02:17:40.775Z,2.78
2022-08-29T02:20:13.795Z,2.03
2022-08-29T02:22:44.103Z,1.95
2022-08-29T02:25:34.693Z,1.98
2022-08-29T02:28:05.534Z,2.08
2022-08-29T02:30:34.330Z,2.47
2022-08-29T02:33:05.360Z,2.63
2022-08-29T02:35:38.864Z,1.77
2022-08-29T02:38:16.025Z,2.20
2022-08-29T02:40:46.959Z,2.13
2022-08-29T02:43:21.124Z,2.35
2022-08-29T02:45:55.636Z,1.83
2022-08-29T02:48:26.138Z,2.40
2022-08-29T02:50:59.427Z,2.00
2022-08-29T02:53:31.075Z,2.80
2022-08-29T02:56:01.612Z,2.05
2022-08-29T02:58:35.225Z,2.38
2022-08-29T03:01:04.890Z,2.67
2022-08-29T03:03:35.353Z,2.50
2022-08-29T03:06:05.132Z,2.10
2022-08-29T03:08:35.991Z,2.22
2022-08-29T03:11:05.089Z,2.35
2022-08-29T03:13:37.854Z,1.77
2022-08-29T03:16:07.100Z,2.33
2022-08-29T03:18:38.578Z,2.00
2022-08-29T03:21:17.657Z,2.33
2022-08-29T03:23:47.310Z,2.33
2022-08-29T03:26:17.781Z,2.13
2022-08-29T03:28:49.265Z,2.10
2022-08-29T03:31:20.284Z,2.33
2022-08-29T03:33:51.093Z,2.15
2022-08-29T03:36:20.642Z,2.42
2022-08-29T03:38:51.656Z,2.38
2022-08-29T03:41:26.893Z,2.30
2022-08-29T03:43:59.002Z,1.92
2022-08-29T03:49:02.496Z,2.45
2022-08-29T03:51:32.515Z,1.95
2022-08-29T03:54:03.758Z,2.00
2022-08-29T03:56:34.373Z,2.35
2022-08-29T03:59:06.061Z,2.55
2022-08-29T04:01:35.416Z,1.85
2022-08-29T04:04:07.955Z,2.10
2022-08-29T04:06:38.550Z,2.30
2022-08-29T04:09:08.755Z,2.50
2022-08-29T04:11:37.047Z,2.50
2022-08-29T04:14:10.044Z,1.77
2022-08-29T04:16:38.925Z,2.00
2022-08-29T04:19:11.079Z,2.80
2022-08-29T04:21:41.995Z,1.73
2022-08-29T04:24:11.093Z,2.35
2022-08-29T04:26:47.602Z,1.83
2022-08-29T04:29:20.812Z,2.03
2022-08-29T04:31:50.633Z,2.20
2022-08-29T04:34:22.199Z,1.73
2022-08-29T04:36:52.915Z,2.08
2022-08-29T04:39:26.008Z,1.85
2022-08-29T04:41:55.731Z,1.83
2022-08-29T04:44:28.250Z,1.85
2022-08-29T04:47:00.787Z,1.98
2022-08-29T04:49:32.095Z,2.17
2022-08-29T04:52:03.787Z,2.05
2022-08-29T04:54:34.526Z,1.98
2022-08-29T04:57:05.671Z,1.70
2022-08-29T04:59:36.085Z,2.13
2022-08-29T05:02:06.459Z,2.05
2022-08-29T05:04:35.416Z,2.40
2022-08-29T05:07:06.042Z,2.22
2022-08-29T05:09:36.799Z,1.90
2022-08-29T05:12:10.159Z,2.10
2022-08-29T05:14:40.450Z,2.10
2022-08-29T05:17:09.247Z,2.10
2022-08-29T05:19:45.485Z,1.73
2022-08-29T05:22:17.585Z,1.95
2022-08-29T05:24:47.282Z,1.92
2022-08-29T05:27:21.234Z,2.10
2022-08-29T05:29:53.803Z,1.90
2022-08-29T05:32:23.782Z,1.88
2022-08-29T05:34:54.825Z,2.47
2022-08-29T05:37:24.805Z,2.35
2022-08-29T05:39:57.566Z,1.65
2022-08-29T05:42:28.228Z,1.98
2022-08-29T05:45:01.468Z,2.47
2022-08-29T05:47:34.777Z,2.08
2022-08-29T05:50:07.552Z,1.75
2022-08-29T05:52:38.143Z,2.00
2022-08-29T05:55:10.159Z,1.88
2022-08-29T05:57:42.162Z,2.00
2022-08-29T06:00:16.998Z,1.95
2022-08-29T06:02:46.565Z,2.78
2022-08-29T06:05:22.596Z,1.95
2022-08-29T06:07:52.645Z,2.22
2022-08-29T06:10:25.082Z,2.20
2022-08-29T06:12:54.447Z,1.90
2022-08-29T06:15:26.364Z,2.20
2022-08-29T06:17:57.453Z,2.03
2022-08-29T06:20:27.782Z,1.75
2022-08-29T06:22:57.378Z,2.50
2022-08-29T06:25:39.507Z,2.90
2022-08-29T06:28:11.217Z,2.55
2022-08-29T06:30:44.366Z,2.42
2022-08-29T06:33:14.349Z,3.13
2022-08-29T06:35:43.453Z,2.88
2022-08-29T06:38:15.585Z,2.72
2022-08-29T06:40:46.343Z,2.50
2022-08-29T06:43:16.471Z,2.35
2022-08-29T06:45:48.678Z,3.55
2022-08-29T06:48:18.857Z,2.60
2022-08-29T06:50:48.559Z,2.95
2022-08-29T06:53:27.489Z,2.63
2022-08-29T06:56:08.195Z,2.75
2022-08-29T06:58:41.566Z,4.07
2022-08-29T07:01:15.327Z,4.40
2022-08-29T07:06:18.713Z,3.17
2022-08-29T07:11:28.268Z,3.63
2022-08-29T07:13:59.321Z,3.20
2022-08-29T07:16:35.089Z,3.10
2022-08-29T07:19:08.330Z,2.85
2022-08-29T07:21:41.425Z,3.10
2022-08-29T07:24:11.214Z,3.85
2022-08-29T07:26:45.707Z,3.38
2022-08-29T07:29:20.025Z,2.67
2022-08-29T07:31:51.984Z,3.17
2022-08-29T07:34:22.402Z,3.53
2022-08-29T07:36:52.201Z,3.20
2022-08-29T07:39:23.532Z,3.97
2022-08-29T07:41:55.172Z,3.38
2022-08-29T07:44:27.503Z,3.27
2022-08-29T07:47:08.642Z,3.45
2022-08-29T07:49:42.065Z,3.55
2022-08-29T07:52:15.785Z,3.58
2022-08-29T07:54:47.599Z,3.58
2022-08-29T07:57:21.210Z,2.88
2022-08-29T07:59:50.751Z,3.42
2022-08-29T08:02:22.788Z,3.00
2022-08-29T08:04:54.164Z,3.42
2022-08-29T08:07:29.346Z,3.95
2022-08-29T08:10:00.307Z,3.20
2022-08-29T08:12:30.062Z,3.42
2022-08-29T08:14:59.752Z,3.72
2022-08-29T08:17:33.914Z,3.50
2022-08-29T08:20:04.151Z,3.45
2022-08-29T08:22:33.464Z,3.28
2022-08-29T08:25:03.195Z,4.95
2022-08-29T08:27:32.255Z,4.00
2022-08-29T08:30:02.021Z,4.57
2022-08-29T08:32:33.558Z,4.70
2022-08-29T08:35:03.067Z,3.78
2022-08-29T08:37:33.764Z,4.32
2022-08-29T08:40:03.127Z,4.45
2022-08-29T08:42:42.870Z,3.67
2022-08-29T08:45:15.492Z,5.10
2022-08-29T08:47:51.828Z,4.22
2022-08-29T08:50:30.331Z,3.95
2022-08-29T08:53:07.999Z,4.13
2022-08-29T08:55:44.440Z,4.03
2022-08-29T08:58:28.962Z,3.75
2022-08-29T09:01:01.961Z,3.33
2022-08-29T09:04:04.500Z,4.00
2022-08-29T09:06:50.811Z,3.45
2022-08-29T09:09:30.885Z,3.45
2022-08-29T09:12:07.688Z,4.28
2022-08-29T09:14:50.108Z,3.40
2022-08-29T09:17:26.066Z,4.55
2022-08-29T09:19:59.711Z,3.72
2022-08-29T09:22:33.627Z,3.38
2022-08-29T09:25:09.324Z,3.40
2022-08-29T09:27:41.728Z,3.92
2022-08-29T09:30:15.065Z,3.67
2022-08-29T09:33:04.396Z,3.63
2022-08-29T09:35:43.317Z,4.88
2022-08-29T09:38:27.766Z,3.20
2022-08-29T09:41:08.653Z,3.88
2022-08-29T09:43:48.478Z,3.10
2022-08-29T09:46:23.883Z,4.15
2022-08-29T09:48:55.625Z,3.83
2022-08-29T09:51:29.696Z,3.50
2022-08-29T09:54:14.719Z,3.33
2022-08-29T09:56:51.386Z,3.28
2022-08-29T09:59:26.151Z,3.85
2022-08-29T10:02:26.883Z,3.65
2022-08-29T10:05:01.733Z,4.07
2022-08-29T10:07:48.519Z,3.80
2022-08-29T10:10:21.817Z,3.25
2022-08-29T10:12:55.725Z,4.07
2022-08-29T10:15:50.011Z,4.15
2022-08-29T10:18:30.020Z,4.53
2022-08-29T10:21:10.412Z,3.58
2022-08-29T10:23:55.016Z,4.03
2022-08-29T10:26:35.123Z,3.47
2022-08-29T10:29:14.945Z,3.58
2022-08-29T10:31:53.483Z,4.00
2022-08-29T10:34:39.435Z,3.25
2022-08-29T10:37:30.635Z,2.90
2022-08-29T10:40:08.353Z,3.55
2022-08-29T10:42:43.363Z,3.35
2022-08-29T10:45:20.001Z,4.55
2022-08-29T10:47:53.816Z,3.45
2022-08-29T10:53:27.869Z,3.30
2022-08-29T10:56:06.503Z,4.30
2022-08-29T10:58:48.729Z,3.30
2022-08-29T11:01:24.174Z,3.60
2022-08-29T11:04:08.260Z,3.35
2022-08-29T11:06:44.022Z,3.85
2022-08-29T11:09:18.344Z,4.97
2022-08-29T11:11:58.950Z,4.28
2022-08-29T11:14:34.611Z,3.92
2022-08-29T11:17:09.023Z,3.33
2022-08-29T11:19:49.386Z,3.80
2022-08-29T11:22:23.424Z,3.00
2022-08-29T11:25:03.861Z,3.22
2022-08-29T11:27:45.116Z,3.47
2022-08-29T11:30:19.201Z,3.58
2022-08-29T11:32:58.665Z,3.75
2022-08-29T11:35:34.138Z,3.03
2022-08-29T11:38:42.437Z,3.08
2022-08-29T11:41:26.732Z,3.88
2022-08-29T11:44:11.195Z,3.40
2022-08-29T11:46:53.351Z,3.13
2022-08-29T11:49:39.342Z,3.10
2022-08-29T11:52:22.440Z,3.10
2022-08-29T11:55:17.905Z,3.38
2022-08-29T11:57:51.342Z,3.20
2022-08-29T12:00:47.442Z,3.03
2022-08-29T12:03:47.571Z,3.30
2022-08-29T12:06:41.110Z,2.92
2022-08-29T12:09:27.937Z,4.10
2022-08-29T12:12:44.369Z,2.55
2022-08-29T12:15:57.950Z,3.28
2022-08-29T12:18:43.450Z,3.22
2022-08-29T12:21:47.303Z,3.17
2022-08-29T12:24:43.411Z,2.60
2022-08-29T12:27:41.372Z,3.47
2022-08-29T12:30:11.870Z,2.75
2022-08-29T12:32:58.810Z,2.50
2022-08-29T12:36:03.105Z,4.03
2022-08-29T12:38:46.315Z,2.42
2022-08-29T12:41:44.764Z,3.10
2022-08-29T12:44:25.033Z,3.22
2022-08-29T12:47:04.185Z,3.20
2022-08-29T12:49:44.688Z,2.58
2022-08-29T12:52:27.556Z,2.85
2022-08-29T12:55:19.800Z,2.53
2022-08-29T12:57:49.385Z,2.95
2022-08-29T13:00:21.781Z,2.63
2022-08-29T13:03:00.509Z,2.88
2022-08-29T13:05:32.530Z,3.63
2022-08-29T13:08:09.650Z,3.33
2022-08-29T13:10:43.242Z,3.25
2022-08-29T13:13:16.326Z,2.35
2022-08-29T13:15:46.008Z,2.75
2022-08-29T13:18:17.814Z,3.13
2022-08-29T13:20:51.609Z,2.15
2022-08-29T13:23:27.320Z,2.47
2022-08-29T13:26:04.859Z,2.03
2022-08-29T13:28:45.357Z,2.53
2022-08-29T13:31:35.174Z,3.95
2022-08-29T13:34:21.747Z,2.40
2022-08-29T13:37:02.520Z,2.83
2022-08-29T13:39:41.381Z,2.22
2022-08-29T13:42:34.845Z,1.73
2022-08-29T13:45:17.440Z,2.28
2022-08-29T13:48:02.862Z,2.22
2022-08-29T13:50:33.473Z,2.08
2022-08-29T13:53:05.985Z,2.28
2022-08-29T13:55:37.639Z,2.45
2022-08-29T13:58:09.769Z,2.30
2022-08-29T14:00:40.946Z,2.20
2022-08-29T14:03:12.666Z,2.20
2022-08-29T14:05:43.235Z,2.58
2022-08-29T14:08:15.009Z,2.90
2022-08-29T14:10:46.174Z,2.72
2022-08-29T14:13:16.464Z,2.50
2022-08-29T14:15:51.069Z,2.53
2022-08-29T14:18:19.141Z,2.67
2022-08-29T14:20:48.161Z,2.38
2022-08-29T14:23:22.707Z,2.20
2022-08-29T14:25:52.066Z,2.67
2022-08-29T14:28:20.087Z,2.72
2022-08-29T14:30:52.281Z,2.85
2022-08-29T14:33:23.704Z,2.53
2022-08-29T14:35:52.130Z,3.17
2022-08-29T14:38:21.746Z,2.45
2022-08-29T14:40:52.051Z,2.47
2022-08-29T14:43:22.011Z,2.90
2022-08-29T14:45:51.481Z,2.38
2022-08-29T14:48:19.721Z,2.33
2022-08-29T14:50:48.073Z,2.13
2022-08-29T14:53:16.659Z,2.00
2022-08-29T14:55:45.930Z,2.95
2022-08-29T14:58:14.339Z,2.22
2022-08-29T15:00:43.293Z,1.70
2022-08-29T15:03:11.559Z,2.25
2022-08-29T15:05:39.817Z,2.42
2022-08-29T15:08:08.962Z,2.40
2022-08-29T15:10:38.498Z,2.15
2022-08-29T15:13:10.299Z,2.30
2022-08-29T15:15:41.097Z,2.22
2022-08-29T15:18:23.515Z,2.28
2022-08-29T15:20:58.855Z,2.22
2022-08-29T15:23:27.198Z,2.30
2022-08-29T15:25:55.162Z,1.88
2022-08-29T15:28:26.066Z,2.33
2022-08-29T15:30:54.925Z,2.35
2022-08-29T15:33:25.329Z,2.05
2022-08-29T15:35:55.097Z,1.88
2022-08-29T15:38:25.364Z,2.50
2022-08-29T15:40:55.364Z,1.75
2022-08-29T15:43:25.034Z,2.00
2022-08-29T15:45:59.136Z,1.35
2022-08-29T15:48:30.179Z,1.70
2022-08-29T15:50:58.450Z,1.90
2022-08-29T15:53:26.991Z,2.10
2022-08-29T15:55:55.855Z,2.40
2022-08-29T15:58:26.826Z,2.15
2022-08-29T16:00:59.385Z,1.85
2022-08-29T16:03:30.269Z,1.73
2022-08-29T16:05:58.892Z,1.80
2022-08-29T16:08:29.782Z,1.98
2022-08-29T16:10:58.726Z,2.22
2022-08-29T16:13:29.811Z,1.65
2022-08-29T16:15:58.605Z,2.20
2022-08-29T16:18:28.398Z,2.08
2022-08-29T16:20:59.330Z,1.80
2022-08-29T16:23:28.510Z,1.90
2022-08-29T16:25:58.171Z,1.95
2022-08-29T16:28:32.057Z,1.92
2022-08-29T16:31:01.809Z,1.88
2022-08-29T16:33:32.028Z,1.58
2022-08-29T16:36:00.858Z,2.10
2022-08-29T16:38:30.657Z,1.70
2022-08-29T16:41:07.451Z,1.80
2022-08-29T16:43:39.129Z,1.67
2022-08-29T16:46:07.922Z,2.00
2022-08-29T16:48:38.281Z,1.38
2022-08-29T16:51:08.077Z,1.80
2022-08-29T16:53:39.301Z,1.52
2022-08-29T16:56:09.698Z,1.10
2022-08-29T16:58:56.680Z,1.63
2022-08-29T17:01:24.701Z,2.70
2022-08-29T17:03:52.995Z,1.92
2022-08-29T17:06:20.942Z,1.67
2022-08-29T17:08:47.829Z,1.63
2022-08-29T17:11:14.923Z,1.92
2022-08-29T17:13:43.146Z,2.20
2022-08-29T17:16:11.034Z,1.90
2022-08-29T17:18:39.928Z,2.10
2022-08-29T17:21:08.896Z,1.92
2022-08-29T17:23:38.458Z,2.25
2022-08-29T17:26:10.387Z,2.10
2022-08-29T17:28:39.983Z,1.70
2022-08-29T17:31:09.838Z,2.40
2022-08-29T17:33:38.272Z,1.90
2022-08-29T17:36:07.954Z,2.58
2022-08-29T17:38:36.522Z,2.20
2022-08-29T17:41:15.264Z,3.00
2022-08-29T17:43:47.290Z,2.25
2022-08-29T17:46:19.662Z,2.00
2022-08-29T17:48:48.192Z,2.03
2022-08-29T17:51:16.412Z,1.80
2022-08-29T17:53:45.651Z,1.83
2022-08-29T17:56:16.021Z,2.45
2022-08-29T17:58:45.150Z,2.47
2022-08-29T18:01:17.031Z,1.70
2022-08-29T18:03:49.592Z,1.95
2022-08-29T18:06:18.310Z,1.73
2022-08-29T18:08:48.189Z,2.10
2022-08-29T18:11:20.195Z,1.88
2022-08-29T18:13:48.469Z,1.95
2022-08-29T18:16:17.290Z,2.10
2022-08-29T18:18:48.600Z,2.08
2022-08-29T18:21:18.577Z,2.00
2022-08-29T18:23:47.277Z,2.05
2022-08-29T18:26:15.492Z,2.60
2022-08-29T18:28:43.881Z,2.15
2022-08-29T18:31:12.824Z,1.92
2022-08-29T18:34:06.713Z,1.77
2022-08-29T18:36:37.982Z,2.20
2022-08-29T18:39:06.794Z,2.53
2022-08-29T18:41:35.058Z,2.38
2022-08-29T18:44:04.461Z,2.20
2022-08-29T18:46:34.916Z,2.20
2022-08-29T18:49:07.435Z,2.10
2022-08-29T18:51:36.115Z,1.80
2022-08-29T18:54:05.172Z,1.95
2022-08-29T18:56:33.291Z,1.73
2022-08-29T18:59:01.284Z,2.22
2022-08-29T19:01:32.232Z,2.40
2022-08-29T19:04:02.425Z,2.17
2022-08-29T19:06:31.795Z,1.98
2022-08-29T19:09:00.117Z,2.17
2022-08-29T19:11:29.267Z,2.33
2022-08-29T19:13:57.347Z,3.13
2022-08-29T19:16:25.762Z,2.35
2022-08-29T19:18:53.912Z,2.90
2022-08-29T19:21:21.075Z,2.10
2022-08-29T19:23:54.706Z,2.35
2022-08-29T19:26:27.620Z,2.55
2022-08-29T19:28:58.624Z,2.67
2022-08-29T19:31:29.084Z,2.90
2022-08-29T19:33:58.319Z,2.40
2022-08-29T19:36:26.842Z,2.47
2022-08-29T19:38:56.184Z,2.40
2022-08-29T19:41:25.107Z,2.40
2022-08-29T19:43:53.651Z,2.85
2022-08-29T19:46:24.640Z,2.65
2022-08-29T19:48:53.781Z,2.28
2022-08-29T19:51:25.273Z,2.55
2022-08-29T19:53:53.948Z,2.70
2022-08-29T19:56:23.808Z,2.80
2022-08-29T19:58:54.672Z,2.55
2022-08-29T20:01:23.103Z,2.97
2022-08-29T20:03:52.261Z,2.92
2022-08-29T20:06:20.959Z,3.22
2022-08-29T20:08:49.212Z,3.10
2022-08-29T20:11:21.152Z,2.63
2022-08-29T20:13:53.366Z,3.17
2022-08-29T20:16:26.348Z,3.00
2022-08-29T20:18:55.191Z,3.42
2022-08-29T20:21:24.248Z,3.17
2022-08-29T20:23:57.239Z,2.80
2022-08-29T20:26:28.643Z,2.50
2022-08-29T20:28:58.908Z,3.15
2022-08-29T20:31:27.850Z,3.65
2022-08-29T20:33:56.052Z,3.08
2022-08-29T20:36:42.604Z,2.63
2022-08-29T20:39:14.126Z,2.90
2022-08-29T20:41:42.766Z,3.60
2022-08-29T20:44:18.092Z,3.50
2022-08-29T20:46:46.489Z,5.95
2022-08-29T20:49:19.754Z,6.03
2022-08-29T20:51:53.193Z,5.57
2022-08-29T20:54:26.303Z,5.03
2022-08-29T20:56:56.997Z,3.65
2022-08-29T20:59:29.519Z,3.65
2022-08-29T21:02:01.169Z,2.85
2022-08-29T21:04:48.387Z,3.35
2022-08-29T21:07:19.144Z,3.20
2022-08-29T21:09:51.079Z,3.55
2022-08-29T21:12:22.137Z,3.40
2022-08-29T21:15:01.962Z,3.55
2022-08-29T21:17:30.648Z,3.70
2022-08-29T21:20:00.701Z,3.65
2022-08-29T21:22:31.640Z,3.53
2022-08-29T21:25:01.278Z,3.50
2022-08-29T21:27:31.043Z,3.90
2022-08-29T21:30:02.406Z,6.90
2022-08-29T21:32:32.654Z,4.85
2022-08-29T21:35:03.914Z,4.97
2022-08-29T21:37:34.573Z,5.05
2022-08-29T21:40:06.813Z,5.50
2022-08-29T21:42:38.166Z,3.85
2022-08-29T21:45:11.364Z,4.05
2022-08-29T21:47:42.582Z,3.55
2022-08-29T21:50:13.827Z,3.72
2022-08-29T21:52:44.885Z,3.53
2022-08-29T21:55:13.349Z,4.40
2022-08-29T21:57:52.733Z,4.30
2022-08-29T22:00:26.279Z,4.03
2022-08-29T22:05:23.867Z,4.30
2022-08-29T22:07:52.290Z,3.88
2022-08-29T22:10:23.797Z,3.30
2022-08-29T22:12:54.056Z,3.83
2022-08-29T22:15:41.997Z,4.05
2022-08-29T22:18:10.393Z,3.95
2022-08-29T22:20:39.463Z,3.53
2022-08-29T22:23:08.282Z,3.85
2022-08-29T22:25:36.602Z,3.58
2022-08-29T22:28:04.597Z,3.22
2022-08-29T22:30:34.542Z,3.85
2022-08-29T22:33:02.721Z,4.10
2022-08-29T22:35:31.168Z,3.55
2022-08-29T22:37:59.497Z,3.58
2022-08-29T22:40:27.838Z,3.40
2022-08-29T22:42:57.237Z,4.47
2022-08-29T22:45:26.005Z,4.35
2022-08-29T22:47:55.456Z,3.83
2022-08-29T22:50:25.766Z,3.40
2022-08-29T22:52:56.305Z,3.45
2022-08-29T22:57:51.177Z,3.67
2022-08-29T23:00:21.957Z,3.75
2022-08-29T23:02:50.992Z,3.90
2022-08-29T23:05:22.040Z,4.00
2022-08-29T23:07:50.203Z,3.67
2022-08-29T23:10:22.146Z,3.40
2022-08-29T23:12:50.748Z,3.42
2022-08-29T23:15:19.182Z,3.95
2022-08-29T23:17:47.628Z,5.13
2022-08-29T23:20:16.940Z,3.38
2022-08-29T23:22:48.716Z,3.63
2022-08-29T23:25:16.828Z,2.92
2022-08-29T23:27:45.002Z,3.17
2022-08-29T23:30:15.754Z,3.28
2022-08-29T23:32:44.174Z,3.45
2022-08-29T23:35:12.621Z,3.47
2022-08-29T23:37:40.622Z,2.85
2022-08-29T23:40:11.107Z,3.13
2022-08-29T23:42:39.678Z,3.25
2022-08-29T23:45:10.816Z,3.30
2022-08-29T23:47:39.011Z,3.00
2022-08-29T23:50:07.870Z,2.80
2022-08-29T23:52:36.507Z,2.95
2022-08-29T23:55:05.390Z,3.50
2022-08-29T23:57:36.086Z,2.15
